首页
METAR-TAF:

METAR-TAF

机场 :

阿拉德, 罗马尼亚

纬度: 46-12N, 经度: 021-24E, 海拔: 117米

当前天气观测

该预报发布于36分钟前的19:00 UTC
风速6节,风向西北
温度 6°C
湿度 75%
气压 1024 hPa
能见度10公里或以上
1500米以下无云,无积雨云

METAR: LRAR 181900Z 32006KT CAVOK 06/02 Q1024

时间: 21:36 (19:36 UTC)

预报

该预报发布于2小时和36分钟前的17:00 UTC
预报有效从18日的 18点(UTC)到 19日的 03点(UTC)
风速9节,风向北转西北
能见度10公里或以上
1500米以下无云,无积雨云
短暂存在
从 19日的 00点(UTC)到 19日的 03点(UTC)
能見度: 5000
轻雾

TAF: LRAR 181700Z 1818/1903 34009KT CAVOK TEMPO 1900/1903 5000 BR

超过4000个机场的气象观测和天气预报(METAR&TAF报告)。

可查询的气象台以黄色和红色小点在地图上表示。

将鼠标移到小点上方,可查看气象台名称。

然后点击查看天气观测和预报。

如需切换地图:点击带黑十字的绿色按钮放大地图;点击带横线的绿色按钮缩小地图;或者点击绿色箭头查看邻近地区的地图。


METAR-TAF: